San Lorenzo, CA

9:01 PM PDT on March 30, 2015 (GMT -0700)
KCASANLO2 | | Change Station
CLOSE
Current Station
Personal Weather Station
Location: San Lorenzo, CA
Elevation: 13 ft
Nearby Weather Stations

Elev 13 ft 37.67 °N, 122.14 °W | Updated 57 seconds ago

Partly Cloudy
Partly Cloudy
58.0 °F
Feels Like 58.0 °F
N
3.0
Wind Variable Wind from NNW
Gusts 13.0 mph

Today
High -- | Low -- °F
--% Chance of Precip.
Yesterday
High -- | Low -- °F
Precip. -- in
6:57 AM 7:29 PM
Waxing Gibbous, 84% visible
Pressure 30.11 in
Visibility 10.0 miles
Clouds Few 1700 ft
Dew Point 53 °F
Humidity 83%
Rainfall 0.00 in
Snow Depth Not available.
UV 0 out of 12
Pollen 11.80 out of 12
Air Quality Not available.
Flu Activity Not available.
METAR KHWD 310354Z AUTO 28010KT 10SM FEW017 15/09 A3008 RMK AO2 SLP194 T01500094 $

More Conditions Fewer Conditions

Pressure 30.11 in
Visibility 10.0 miles
Clouds Few 1700 ft
Dew Point 53 °F
Humidity 83%
Rainfall 0.00 in
Snow Depth Not available.
UV 0 out of 12
Pollen 11.80 out of 12
Air Quality Not available.
Flu Activity Not available.
METAR KHWD 310354Z AUTO 28010KT 10SM FEW017 15/09 A3008 RMK AO2 SLP194 T01500094 $

More Conditions Fewer Conditions

10-Day Weather Forecast

Almanac

Astronomy

Mar. 30, 2015 Rise Set
Actual Time
Civil Twilight
Nautical Twilight
Astronomical Twilight
Moon
Length of Visible Light
Length of Day
Tomorrow will be .
, % of the Moon is Illuminated

Today's Extremes

State Highs State Lows

Community

WunderPhotos

Upload Photos

1,809,715 photos uploaded!

WunderBlogs® & News

Nearby

Air Quality

  Air Quality AQ Index Pollutant
Not available.

Snow Depth

Station Depth Elevation

Earthquake Activity

City Distance Mag. Time & Date
Minimum magnitude displayed is 2.5.

Coastal Water Temperatures

Place Temperature

Stations

Nearby Weather Stations

Station Location Temp. Windchill Dew Point Humidity Wind Precip. Elev Updated Type